Providence, Rhode Island
Traffic Map
Current Weather Conditions
Providence, Rhode Island
Overcast Moderate Rain
Overcast

Feels Like: -2°
Wind Chill: -2° Ceiling: 900
Heat Index: Visibility: 6mi
Dew Point: Wind: 18mph
Humidity: 93% Direction: 20° (NNE)
Pressure: 29.69in Gusts: 24mph
Raw Report DataKPVD 262351Z 02016G21KT 6SM RA BR OVC009 03/02 A2969 RMK AO2 PRESFR SLP053 60091 P0009 T00330022 10033 20011 58074
Traffic Incident Summary
Active as of:
Severity:
Category:
InformationThere was an issue retrieving the traffic information for this location. Please try a different location or try again shortly.
Advertisements
Track Severe Weather on mobile